Rye, NH (03870)

2:06 PM EDT on April 24, 2017 (GMT -0400)
Greenland, NH | | Change Station

Elev 96 ft 43.03 °N, 70.83 °W | Updated 4 seconds ago

Partly Cloudy
Partly Cloudy
63.5 °F
Feels Like 63.5 °F
N
3.0
Wind Variable Wind from West
Gusts 4.0 mph

Today
High -- | Low -- °F
--% Chance of Precip.
Yesterday
High -- | Low -- °F
Precip. -- in
Pressure 30.15 in
Visibility 10.0 miles
Clouds Few 10000 ft
Mostly Cloudy 25000 ft
Dew Point 41 °F
Humidity 43%
Rainfall 0.00 in
Snow Depth Not available.
5:46 AM 7:36 PM
Waning Crescent, 4% visible
METAR KPSM 241758Z 10011KT 10SM FEW100 BKN250 17/03 A3014 RMK AO2A SLP210 T01700032 10176 20106 58007
Pressure 30.15 in
Visibility 10.0 miles
Clouds Few 10000 ft
Mostly Cloudy 25000 ft
Dew Point 41 °F
Humidity 43%
Rainfall 0.00 in
Snow Depth Not available.
5:46 AM 7:36 PM
Waning Crescent, 4% visible
METAR KPSM 241758Z 10011KT 10SM FEW100 BKN250 17/03 A3014 RMK AO2A SLP210 T01700032 10176 20106 58007

Get Severe Weather Alerts

Thanks for signing up!

Be on the lookout for a verification email in your inbox.

You'll start receiving the daily forecast at 8 AM.

×

10-Day Weather Forecast

Almanac

Astronomy

Apr. 24, 2017 Rise Set
Actual Time
Civil Twilight
Nautical Twilight
Astronomical Twilight
Moon
Length of Visible Light
Length of Day
Tomorrow will be .
, % of the Moon is Illuminated

Today's Extremes

State Highs State Lows

Community

WunderPhotos

WunderBlog® & News

Nearby

Air Quality

  Air Quality AQ Index Pollutant
Not available.

Snow Depth

Station Depth Elevation

Earthquake Activity

City Distance Mag. Time & Date
Minimum magnitude displayed is 2.5.

Coastal Water Temperatures

Place Temperature

Stations

Nearby Weather Stations

Station Location Temp. Windchill Dew Point Humidity Wind Precip. Elev Updated Type
                   

Watches & Warnings

There are currently no watches in effect.